createdAt,value
2023-05-06T00:00:58.481Z,6.20
2023-05-06T00:03:24.879Z,6.30
2023-05-06T00:05:51.453Z,7.37
2023-05-06T00:08:17.973Z,6.10
2023-05-06T00:10:45.044Z,6.32
2023-05-06T00:13:12.836Z,6.82
2023-05-06T00:15:40.349Z,7.30
2023-05-06T00:18:07.039Z,6.43
2023-05-06T00:20:33.399Z,6.25
2023-05-06T00:23:00.018Z,6.40
2023-05-06T00:25:26.707Z,7.10
2023-05-06T00:27:54.095Z,5.70
2023-05-06T00:30:20.441Z,5.40
2023-05-06T00:32:46.875Z,6.10
2023-05-06T00:35:13.352Z,5.68
2023-05-06T00:37:39.709Z,7.70
2023-05-06T00:40:06.876Z,5.93
2023-05-06T00:42:33.291Z,5.93
2023-05-06T00:44:59.678Z,6.20
2023-05-06T00:47:26.494Z,5.95
2023-05-06T00:49:52.983Z,5.78
2023-05-06T00:52:19.831Z,6.65
2023-05-06T00:54:46.237Z,6.47
2023-05-06T00:57:12.760Z,10.57
2023-05-06T00:59:39.658Z,5.97
2023-05-06T01:02:06.041Z,6.05
2023-05-06T01:07:33.593Z,6.73
2023-05-06T01:10:20.033Z,6.43
2023-05-06T01:13:03.593Z,6.85
2023-05-06T01:15:58.405Z,7.53
2023-05-06T01:18:26.926Z,7.78
2023-05-06T01:20:54.680Z,6.97
2023-05-06T01:23:21.055Z,7.90
2023-05-06T01:25:47.448Z,6.35
2023-05-06T01:28:13.996Z,7.25
2023-05-06T01:30:55.876Z,6.40
2023-05-06T01:33:48.623Z,6.93
2023-05-06T01:36:39.004Z,8.07
2023-05-06T01:39:18.399Z,7.85
2023-05-06T01:41:48.668Z,7.90
2023-05-06T01:44:16.290Z,7.93
2023-05-06T01:46:45.075Z,9.00
2023-05-06T01:49:12.615Z,9.80
2023-05-06T01:51:39.218Z,8.73
2023-05-06T01:54:05.709Z,7.95
2023-05-06T01:56:32.243Z,8.07
2023-05-06T01:58:59.648Z,7.30
2023-05-06T02:01:26.539Z,9.57
2023-05-06T02:03:53.104Z,8.93
2023-05-06T02:06:19.744Z,7.53
2023-05-06T02:08:46.452Z,8.50
2023-05-06T02:11:12.781Z,7.83
2023-05-06T02:13:39.154Z,8.00
2023-05-06T02:16:05.776Z,7.38
2023-05-06T02:18:32.234Z,7.35
2023-05-06T02:20:58.599Z,7.45
2023-05-06T02:23:24.908Z,7.33
2023-05-06T02:25:51.737Z,7.63
2023-05-06T02:28:18.123Z,7.35
2023-05-06T02:30:44.619Z,7.55
2023-05-06T02:33:11.008Z,8.00
2023-05-06T02:35:37.552Z,7.60
2023-05-06T02:38:04.316Z,7.85
2023-05-06T02:40:30.792Z,7.43
2023-05-06T02:42:57.250Z,7.75
2023-05-06T02:45:23.726Z,8.93
2023-05-06T02:47:50.157Z,7.30
2023-05-06T02:50:16.977Z,8.57
2023-05-06T02:52:43.387Z,7.70
2023-05-06T02:55:10.108Z,9.13
2023-05-06T02:57:36.646Z,7.25
2023-05-06T03:00:03.410Z,8.80
2023-05-06T03:02:29.851Z,7.43
2023-05-06T03:04:56.218Z,8.68
2023-05-06T03:07:22.682Z,8.05
2023-05-06T03:09:49.107Z,7.97
2023-05-06T03:12:15.528Z,7.17
2023-05-06T03:14:41.979Z,7.15
2023-05-06T03:17:08.422Z,7.03
2023-05-06T03:19:34.814Z,9.07
2023-05-06T03:22:01.205Z,7.50
2023-05-06T03:24:27.640Z,7.63
2023-05-06T03:26:54.079Z,7.60
2023-05-06T03:29:20.537Z,7.78
2023-05-06T03:31:50.666Z,8.00
2023-05-06T03:34:17.131Z,11.98
2023-05-06T03:36:43.548Z,7.40
2023-05-06T03:39:10.469Z,7.35
2023-05-06T03:41:36.941Z,7.38
2023-05-06T03:44:03.312Z,7.25
2023-05-06T03:46:29.728Z,7.03
2023-05-06T03:48:56.245Z,7.50
2023-05-06T03:51:22.626Z,7.57
2023-05-06T03:53:49.043Z,7.45
2023-05-06T03:56:18.150Z,6.93
2023-05-06T03:58:44.648Z,7.53
2023-05-06T04:01:10.952Z,7.17
2023-05-06T04:03:37.395Z,8.77
2023-05-06T04:06:04.202Z,7.20
2023-05-06T04:08:30.641Z,7.35
2023-05-06T04:10:57.357Z,7.18
2023-05-06T04:13:23.748Z,8.10
2023-05-06T04:15:50.385Z,8.30
2023-05-06T04:18:19.159Z,8.15
2023-05-06T04:20:47.875Z,7.63
2023-05-06T04:23:14.722Z,8.40
2023-05-06T04:25:42.599Z,9.80
2023-05-06T04:28:11.244Z,8.63
2023-05-06T04:30:37.957Z,8.93
2023-05-06T04:33:04.453Z,9.35
2023-05-06T04:35:31.110Z,8.15
2023-05-06T04:37:57.684Z,7.50
2023-05-06T04:40:26.166Z,8.88
2023-05-06T04:42:52.531Z,8.57
2023-05-06T04:45:18.832Z,8.18
2023-05-06T04:47:45.548Z,8.18
2023-05-06T04:50:12.040Z,8.50
2023-05-06T04:52:38.462Z,8.88
2023-05-06T04:55:05.405Z,9.27
2023-05-06T04:57:32.257Z,11.45
2023-05-06T04:59:58.618Z,8.85
2023-05-06T05:02:25.031Z,9.63
2023-05-06T05:04:51.735Z,10.82
2023-05-06T05:07:18.098Z,9.48
2023-05-06T05:09:45.343Z,9.90
2023-05-06T05:12:11.731Z,10.48
2023-05-06T05:14:38.131Z,9.93
2023-05-06T05:17:04.577Z,9.65
2023-05-06T05:19:30.932Z,13.70
2023-05-06T05:21:57.315Z,10.30
2023-05-06T05:24:23.680Z,9.77
2023-05-06T05:26:50.102Z,9.67
2023-05-06T05:29:16.523Z,9.88
2023-05-06T05:31:42.988Z,10.25
2023-05-06T05:34:09.408Z,11.38
2023-05-06T05:36:35.806Z,12.55
2023-05-06T05:39:02.180Z,10.70
2023-05-06T05:41:28.615Z,12.55
2023-05-06T05:43:55.003Z,11.93
2023-05-06T05:46:21.577Z,11.32
2023-05-06T05:48:47.950Z,12.63
2023-05-06T05:51:14.390Z,12.43
2023-05-06T05:53:40.835Z,12.50
2023-05-06T05:56:07.512Z,13.35
2023-05-06T05:58:34.566Z,13.35
2023-05-06T06:01:01.553Z,12.38
2023-05-06T06:03:27.951Z,12.23
2023-05-06T06:05:55.291Z,13.30
2023-05-06T06:08:21.785Z,13.02
2023-05-06T06:10:48.171Z,12.40
2023-05-06T06:13:14.707Z,14.02
2023-05-06T06:15:41.342Z,17.33
2023-05-06T06:18:08.981Z,12.93
2023-05-06T06:20:36.466Z,12.45
2023-05-06T06:23:02.885Z,12.82
2023-05-06T06:25:29.263Z,13.07
2023-05-06T06:27:56.657Z,13.13
2023-05-06T06:30:23.254Z,13.70
2023-05-06T06:32:51.720Z,12.50
2023-05-06T06:35:19.841Z,13.98
2023-05-06T06:37:46.717Z,13.77
2023-05-06T06:40:13.624Z,13.30
2023-05-06T06:42:39.981Z,13.10
2023-05-06T06:45:09.216Z,15.38
2023-05-06T06:47:36.186Z,14.02
2023-05-06T06:50:02.900Z,14.95
2023-05-06T06:52:29.227Z,17.00
2023-05-06T06:54:55.578Z,14.23
2023-05-06T06:57:21.924Z,14.65
2023-05-06T06:59:50.302Z,14.82
2023-05-06T07:02:16.690Z,13.70
2023-05-06T07:04:43.267Z,14.50
2023-05-06T07:07:09.676Z,14.23
2023-05-06T07:09:36.493Z,14.52
2023-05-06T07:12:04.002Z,13.57
2023-05-06T07:14:30.373Z,14.57
2023-05-06T07:16:56.835Z,14.67
2023-05-06T07:19:23.240Z,14.88
2023-05-06T07:21:49.571Z,15.77
2023-05-06T07:24:15.965Z,15.18
2023-05-06T07:26:42.334Z,15.60
2023-05-06T07:29:08.730Z,15.30
2023-05-06T07:31:35.175Z,14.05
2023-05-06T07:34:01.781Z,16.15
2023-05-06T07:36:28.794Z,14.98
2023-05-06T07:38:55.218Z,21.27
2023-05-06T07:41:21.627Z,13.67
2023-05-06T07:43:47.995Z,15.75
2023-05-06T07:46:14.452Z,20.58
2023-05-06T07:48:40.899Z,16.73
2023-05-06T07:51:07.321Z,17.60
2023-05-06T07:53:33.732Z,19.07
2023-05-06T07:56:02.547Z,17.38
2023-05-06T07:58:30.168Z,17.52
2023-05-06T08:00:56.606Z,19.50
2023-05-06T08:03:23.193Z,16.30
2023-05-06T08:05:51.275Z,19.77
2023-05-06T08:08:21.544Z,17.52
2023-05-06T08:10:47.961Z,17.17
2023-05-06T08:13:14.456Z,18.05
2023-05-06T08:15:41.026Z,19.13
2023-05-06T08:18:20.911Z,19.20
2023-05-06T08:20:48.458Z,18.33
2023-05-06T08:23:14.907Z,16.40
2023-05-06T08:25:41.292Z,15.32
2023-05-06T08:28:07.773Z,18.70
2023-05-06T08:30:34.214Z,17.23
2023-05-06T08:33:02.209Z,20.33
2023-05-06T08:35:28.655Z,17.48
2023-05-06T08:37:55.084Z,22.67
2023-05-06T08:40:23.923Z,19.23
2023-05-06T08:42:50.767Z,21.77
2023-05-06T08:45:17.700Z,23.45
2023-05-06T08:47:44.485Z,24.52
2023-05-06T08:50:11.183Z,20.02
2023-05-06T08:52:39.110Z,16.88
2023-05-06T08:55:07.187Z,21.53
2023-05-06T08:57:34.425Z,20.20
2023-05-06T09:00:01.302Z,20.02
2023-05-06T09:02:28.333Z,17.73
2023-05-06T09:04:56.798Z,22.13
2023-05-06T09:07:24.312Z,18.03
2023-05-06T09:09:51.624Z,18.77
2023-05-06T09:12:18.530Z,15.10
2023-05-06T09:14:46.568Z,17.65
2023-05-06T09:17:24.516Z,16.40
2023-05-06T09:19:52.813Z,20.57
2023-05-06T09:22:22.111Z,15.20
2023-05-06T09:24:58.005Z,16.77
2023-05-06T09:27:29.234Z,18.05
2023-05-06T09:30:11.566Z,17.80
2023-05-06T09:32:39.971Z,16.70
2023-05-06T09:35:08.382Z,15.93
2023-05-06T09:37:35.048Z,15.10
2023-05-06T09:40:01.716Z,16.38
2023-05-06T09:42:29.794Z,15.45
2023-05-06T09:44:59.873Z,19.23
2023-05-06T09:47:32.959Z,18.75
2023-05-06T09:50:01.459Z,14.30
2023-05-06T09:52:28.727Z,17.75
2023-05-06T09:54:55.492Z,16.55
2023-05-06T09:57:22.904Z,16.27
2023-05-06T09:59:52.122Z,19.40
2023-05-06T10:02:19.680Z,15.23
2023-05-06T10:04:48.724Z,17.00
2023-05-06T10:07:19.573Z,15.18
2023-05-06T10:09:46.773Z,19.47
2023-05-06T10:12:13.819Z,17.23
2023-05-06T10:14:40.335Z,17.25
2023-05-06T10:17:09.437Z,14.30
2023-05-06T10:19:40.034Z,15.93
2023-05-06T10:22:27.216Z,15.37
2023-05-06T10:25:05.563Z,16.05
2023-05-06T10:27:35.778Z,15.48
2023-05-06T10:30:02.156Z,15.80
2023-05-06T10:32:32.483Z,16.17
2023-05-06T10:35:08.906Z,13.00
2023-05-06T10:37:37.824Z,13.15
2023-05-06T10:40:05.391Z,11.50
2023-05-06T10:42:35.474Z,12.55
2023-05-06T10:45:03.905Z,13.77
2023-05-06T10:47:56.267Z,13.40
2023-05-06T10:50:24.528Z,15.65
2023-05-06T10:52:59.853Z,8.40
2023-05-06T10:55:27.461Z,11.00
2023-05-06T10:57:56.566Z,10.40
2023-05-06T11:00:23.477Z,11.03
2023-05-06T11:02:57.429Z,9.48
2023-05-06T11:05:24.798Z,8.57
2023-05-06T11:07:52.446Z,7.95
2023-05-06T11:10:34.436Z,8.15
2023-05-06T11:13:19.993Z,6.73
2023-05-06T11:15:46.901Z,8.57
2023-05-06T11:18:25.444Z,6.60
2023-05-06T11:21:12.606Z,11.85
2023-05-06T11:24:08.263Z,8.02
2023-05-06T11:26:35.025Z,5.80
2023-05-06T11:29:04.012Z,5.95
2023-05-06T11:31:38.465Z,7.05
2023-05-06T11:34:09.002Z,7.38
2023-05-06T11:36:37.209Z,7.47
2023-05-06T11:39:09.526Z,10.47
2023-05-06T11:41:39.672Z,9.73
2023-05-06T11:44:06.440Z,7.82
2023-05-06T11:46:33.524Z,8.15
2023-05-06T11:49:00.645Z,8.60
2023-05-06T11:51:27.270Z,8.40
2023-05-06T11:54:10.888Z,8.88
2023-05-06T11:56:48.683Z,8.82
2023-05-06T11:59:15.553Z,9.43
2023-05-06T12:01:43.402Z,9.25
2023-05-06T12:04:11.012Z,13.20
2023-05-06T12:06:38.261Z,8.35
2023-05-06T12:09:06.982Z,10.40
2023-05-06T12:11:34.946Z,7.50
2023-05-06T12:14:04.960Z,6.40
2023-05-06T12:16:31.832Z,8.77
2023-05-06T12:18:58.255Z,7.05
2023-05-06T12:21:25.083Z,9.05
2023-05-06T12:23:59.407Z,10.05
2023-05-06T12:26:30.466Z,8.35
2023-05-06T12:29:08.883Z,8.23
2023-05-06T12:31:35.736Z,8.50
2023-05-06T12:34:03.154Z,9.55
2023-05-06T12:36:30.622Z,10.35
2023-05-06T12:38:59.353Z,6.78
2023-05-06T12:41:42.656Z,8.00
2023-05-06T12:44:38.125Z,6.47
2023-05-06T12:47:09.538Z,6.88
2023-05-06T12:49:57.896Z,7.20
2023-05-06T12:52:27.429Z,7.68
2023-05-06T12:54:54.102Z,7.00
2023-05-06T12:57:21.042Z,7.93
2023-05-06T12:59:49.262Z,7.32
2023-05-06T13:02:16.104Z,10.10
2023-05-06T13:07:22.426Z,9.00
2023-05-06T13:09:48.914Z,9.30
2023-05-06T13:12:15.315Z,9.40
2023-05-06T13:14:41.720Z,10.18
2023-05-06T13:17:08.651Z,11.32
2023-05-06T13:19:35.121Z,10.40
2023-05-06T13:22:01.968Z,10.27
2023-05-06T13:24:29.092Z,8.02
2023-05-06T13:26:56.921Z,8.85
2023-05-06T13:29:23.748Z,9.73
2023-05-06T13:31:50.955Z,9.77
2023-05-06T13:34:17.456Z,10.27
2023-05-06T13:36:43.891Z,9.88
2023-05-06T13:39:10.221Z,8.60
2023-05-06T13:41:36.598Z,8.00
2023-05-06T13:44:03.491Z,7.85
2023-05-06T13:46:30.066Z,7.73
2023-05-06T13:48:56.438Z,7.30
2023-05-06T13:51:22.859Z,7.88
2023-05-06T13:53:49.211Z,7.55
2023-05-06T13:56:15.619Z,7.63
2023-05-06T13:58:41.973Z,6.27
2023-05-06T14:01:08.349Z,5.90
2023-05-06T14:03:34.771Z,4.90
2023-05-06T14:06:01.353Z,3.55
2023-05-06T14:08:27.758Z,2.90
2023-05-06T14:10:54.191Z,4.23
2023-05-06T14:13:20.727Z,2.58
2023-05-06T14:15:47.311Z,4.70
2023-05-06T14:18:13.841Z,3.95
2023-05-06T14:20:40.243Z,6.05
2023-05-06T14:23:06.951Z,4.33
2023-05-06T14:25:33.523Z,3.13
2023-05-06T14:28:00.152Z,2.83
2023-05-06T14:30:26.694Z,2.10
2023-05-06T14:32:53.120Z,2.72
2023-05-06T14:35:19.640Z,6.00
2023-05-06T14:37:46.154Z,1.98
2023-05-06T14:40:13.033Z,3.33
2023-05-06T14:42:39.378Z,2.20
2023-05-06T14:45:06.823Z,2.08
2023-05-06T14:47:33.224Z,4.33
2023-05-06T14:49:59.838Z,3.20
2023-05-06T14:52:26.265Z,2.15
2023-05-06T14:54:52.618Z,2.38
2023-05-06T14:57:19.025Z,1.80
2023-05-06T14:59:46.051Z,2.30
2023-05-06T15:02:12.463Z,2.83
2023-05-06T15:04:38.817Z,1.95
2023-05-06T15:07:05.326Z,1.88
2023-05-06T15:09:31.958Z,1.83
2023-05-06T15:11:58.494Z,3.50
2023-05-06T15:14:24.903Z,2.05
2023-05-06T15:16:56.855Z,3.17
2023-05-06T15:19:23.738Z,3.78
2023-05-06T15:21:50.573Z,4.72
2023-05-06T15:24:17.100Z,10.03
2023-05-06T15:26:43.540Z,4.13
2023-05-06T15:29:09.930Z,3.60
2023-05-06T15:31:39.136Z,2.42
2023-05-06T15:34:06.893Z,4.10
2023-05-06T15:36:33.413Z,6.10
2023-05-06T15:39:01.034Z,4.13
2023-05-06T15:41:38.263Z,3.08
2023-05-06T15:44:06.100Z,2.67
2023-05-06T15:46:33.306Z,2.88
2023-05-06T15:49:15.762Z,1.90
2023-05-06T15:51:46.732Z,3.13
2023-05-06T15:54:15.352Z,2.53
2023-05-06T15:56:41.869Z,2.03
2023-05-06T15:59:08.641Z,9.88
2023-05-06T16:01:57.361Z,3.27
2023-05-06T16:04:22.073Z,1.67
2023-05-06T16:06:49.206Z,2.47
2023-05-06T16:09:15.601Z,2.22
2023-05-06T16:11:41.922Z,3.70
2023-05-06T16:14:08.341Z,2.63
2023-05-06T16:16:34.945Z,3.17
2023-05-06T16:19:01.545Z,2.78
2023-05-06T16:21:28.537Z,3.25
2023-05-06T16:23:54.988Z,1.90
2023-05-06T16:26:21.440Z,5.70
2023-05-06T16:28:47.903Z,2.60
2023-05-06T16:31:14.423Z,4.15
2023-05-06T16:33:40.975Z,2.47
2023-05-06T16:36:07.834Z,1.52
2023-05-06T16:38:34.232Z,3.53
2023-05-06T16:41:00.830Z,2.55
2023-05-06T16:43:27.161Z,2.03
2023-05-06T16:45:53.494Z,2.53
2023-05-06T16:48:19.929Z,2.60
2023-05-06T16:50:46.523Z,7.07
2023-05-06T16:53:13.110Z,2.50
2023-05-06T16:55:39.741Z,2.20
2023-05-06T16:58:06.344Z,2.45
2023-05-06T17:00:32.883Z,3.78
2023-05-06T17:02:59.431Z,3.67
2023-05-06T17:05:27.958Z,2.75
2023-05-06T17:07:54.413Z,3.58
2023-05-06T17:10:21.889Z,2.50
2023-05-06T17:12:48.251Z,4.63
2023-05-06T17:15:14.659Z,4.80
2023-05-06T17:17:41.113Z,2.67
2023-05-06T17:20:08.432Z,1.90
2023-05-06T17:22:34.899Z,3.08
2023-05-06T17:25:01.270Z,2.50
2023-05-06T17:27:27.626Z,1.30
2023-05-06T17:29:53.951Z,2.25
2023-05-06T17:32:20.653Z,2.15
2023-05-06T17:34:47.035Z,2.00
2023-05-06T17:37:13.394Z,3.47
2023-05-06T17:39:39.818Z,1.83
2023-05-06T17:42:06.325Z,2.65
2023-05-06T17:44:35.199Z,1.75
2023-05-06T17:47:01.703Z,4.68
2023-05-06T17:49:28.205Z,1.40
2023-05-06T17:51:55.962Z,3.43
2023-05-06T17:54:22.572Z,2.10
2023-05-06T17:56:52.864Z,1.45
2023-05-06T17:59:20.045Z,3.63
2023-05-06T18:01:46.863Z,2.78
2023-05-06T18:04:13.932Z,2.43
2023-05-06T18:06:41.791Z,3.78
2023-05-06T18:09:10.185Z,2.60
2023-05-06T18:11:37.985Z,2.35
2023-05-06T18:14:05.368Z,3.83
2023-05-06T18:16:31.785Z,2.93
2023-05-06T18:19:00.636Z,3.55
2023-05-06T18:21:27.675Z,3.67
2023-05-06T18:24:01.895Z,4.57
2023-05-06T18:26:43.875Z,4.00
2023-05-06T18:29:11.838Z,4.30
2023-05-06T18:31:38.311Z,4.97
2023-05-06T18:34:04.762Z,4.43
2023-05-06T18:36:31.147Z,4.72
2023-05-06T18:38:57.598Z,4.55
2023-05-06T18:41:24.960Z,5.13
2023-05-06T18:43:51.353Z,5.25
2023-05-06T18:46:17.798Z,5.55
2023-05-06T18:48:44.274Z,17.20
2023-05-06T18:51:15.710Z,6.82
2023-05-06T18:53:43.136Z,5.97
2023-05-06T18:56:10.574Z,6.90
2023-05-06T18:58:38.460Z,5.95
2023-05-06T19:01:10.998Z,7.78
2023-05-06T19:03:38.337Z,7.45
2023-05-06T19:06:08.086Z,6.33
2023-05-06T19:08:35.289Z,7.43
2023-05-06T19:11:02.430Z,7.05
2023-05-06T19:13:28.893Z,6.90
2023-05-06T19:15:56.016Z,6.65
2023-05-06T19:18:22.469Z,7.10
2023-05-06T19:20:48.808Z,7.40
2023-05-06T19:23:15.126Z,9.40
2023-05-06T19:25:41.521Z,8.15
2023-05-06T19:28:09.453Z,7.47
2023-05-06T19:30:36.173Z,6.57
2023-05-06T19:33:03.394Z,7.97
2023-05-06T19:35:30.208Z,7.60
2023-05-06T19:37:56.667Z,8.07
2023-05-06T19:40:23.300Z,8.23
2023-05-06T19:42:49.680Z,7.30
2023-05-06T19:45:18.133Z,8.30
2023-05-06T19:47:45.728Z,8.32
2023-05-06T19:50:12.875Z,7.82
2023-05-06T19:52:39.555Z,8.07
2023-05-06T19:55:06.491Z,8.23
2023-05-06T19:57:33.828Z,8.75
2023-05-06T20:00:00.336Z,8.48
2023-05-06T20:02:26.830Z,9.23
2023-05-06T20:04:53.228Z,9.15
2023-05-06T20:07:20.957Z,9.63
2023-05-06T20:09:47.552Z,9.60
2023-05-06T20:12:13.993Z,11.95
2023-05-06T20:14:40.532Z,11.32
2023-05-06T20:17:06.872Z,14.52
2023-05-06T20:19:33.215Z,11.13
2023-05-06T20:22:00.259Z,11.38
2023-05-06T20:24:29.448Z,10.50
2023-05-06T20:26:56.235Z,12.02
2023-05-06T20:29:22.622Z,12.50
2023-05-06T20:31:49.100Z,14.87
2023-05-06T20:34:15.483Z,13.63
2023-05-06T20:36:42.967Z,15.18
2023-05-06T20:39:12.768Z,15.13
2023-05-06T20:41:39.141Z,15.50
2023-05-06T20:44:05.680Z,18.33
2023-05-06T20:46:32.927Z,18.05
2023-05-06T20:48:59.886Z,15.10
2023-05-06T20:51:27.616Z,15.75
2023-05-06T20:53:58.329Z,14.32
2023-05-06T20:56:26.204Z,15.00
2023-05-06T20:58:53.687Z,18.67
2023-05-06T21:01:21.882Z,16.27
2023-05-06T21:03:49.058Z,16.80
2023-05-06T21:06:17.056Z,18.25
2023-05-06T21:08:44.637Z,18.97
2023-05-06T21:11:11.137Z,16.92
2023-05-06T21:13:37.640Z,15.23
2023-05-06T21:16:04.504Z,17.70
2023-05-06T21:18:31.018Z,15.98
2023-05-06T21:20:57.651Z,14.83
2023-05-06T21:23:24.069Z,18.58
2023-05-06T21:25:50.399Z,15.43
2023-05-06T21:28:16.806Z,15.43
2023-05-06T21:30:43.181Z,15.13
2023-05-06T21:33:11.127Z,14.63
2023-05-06T21:35:37.809Z,13.63
2023-05-06T21:38:04.192Z,16.45
2023-05-06T21:40:30.599Z,12.65
2023-05-06T21:42:57.004Z,13.27
2023-05-06T21:45:23.446Z,12.90
2023-05-06T21:47:49.973Z,12.18
2023-05-06T21:50:16.403Z,11.10
2023-05-06T21:52:42.846Z,9.70
2023-05-06T21:55:09.610Z,9.85
2023-05-06T21:57:36.121Z,10.70
2023-05-06T22:00:08.625Z,9.35
2023-05-06T22:02:35.163Z,11.05
2023-05-06T22:05:01.616Z,9.75
2023-05-06T22:07:28.006Z,9.50
2023-05-06T22:09:54.412Z,9.17
2023-05-06T22:12:20.767Z,8.40
2023-05-06T22:14:47.118Z,9.18
2023-05-06T22:17:13.577Z,9.88
2023-05-06T22:19:40.770Z,9.35
2023-05-06T22:22:07.824Z,11.17
2023-05-06T22:24:34.266Z,8.23
2023-05-06T22:27:01.599Z,9.13
2023-05-06T22:29:27.989Z,7.88
2023-05-06T22:31:54.390Z,10.52
2023-05-06T22:34:20.840Z,7.80
2023-05-06T22:36:47.361Z,8.68
2023-05-06T22:39:13.848Z,9.43
2023-05-06T22:41:40.213Z,8.95
2023-05-06T22:44:06.663Z,8.02
2023-05-06T22:46:33.174Z,7.13
2023-05-06T22:49:00.098Z,7.82
2023-05-06T22:51:26.578Z,7.72
2023-05-06T22:53:53.039Z,7.78
2023-05-06T22:56:20.002Z,8.30
2023-05-06T22:58:46.404Z,7.13
2023-05-06T23:01:12.903Z,7.63
2023-05-06T23:03:39.365Z,7.53
2023-05-06T23:06:06.037Z,6.95
2023-05-06T23:08:32.667Z,6.57
2023-05-06T23:10:59.227Z,6.80
2023-05-06T23:13:26.440Z,6.68
2023-05-06T23:15:53.028Z,6.43
2023-05-06T23:18:20.528Z,5.32
2023-05-06T23:20:46.965Z,8.00
2023-05-06T23:23:13.362Z,5.47
2023-05-06T23:25:39.793Z,5.57
2023-05-06T23:28:06.252Z,5.80
2023-05-06T23:30:32.649Z,4.95
2023-05-06T23:32:59.130Z,5.35
2023-05-06T23:35:25.954Z,5.30
2023-05-06T23:37:52.371Z,5.50
2023-05-06T23:40:18.744Z,5.15
2023-05-06T23:42:45.173Z,5.68
2023-05-06T23:45:12.041Z,5.70
2023-05-06T23:47:38.661Z,9.10
2023-05-06T23:50:05.505Z,6.43
2023-05-06T23:52:31.887Z,5.10
2023-05-06T23:54:58.234Z,4.68
2023-05-06T23:57:24.631Z,5.75
2023-05-06T23:59:51.142Z,5.03
